createdAt,value
2023-05-08T00:00:34.029Z,9.40
2023-05-08T00:03:00.851Z,9.32
2023-05-08T00:05:29.316Z,10.07
2023-05-08T00:08:01.280Z,11.55
2023-05-08T00:10:29.056Z,9.05
2023-05-08T00:12:56.146Z,10.38
2023-05-08T00:15:22.961Z,8.70
2023-05-08T00:17:52.851Z,9.70
2023-05-08T00:20:19.591Z,10.95
2023-05-08T00:22:48.793Z,9.45
2023-05-08T00:25:15.553Z,10.30
2023-05-08T00:27:42.315Z,10.82
2023-05-08T00:30:10.169Z,10.65
2023-05-08T00:32:37.103Z,9.77
2023-05-08T00:35:07.564Z,9.85
2023-05-08T00:37:34.335Z,11.23
2023-05-08T00:40:02.423Z,12.07
2023-05-08T00:42:29.179Z,9.60
2023-05-08T00:44:56.378Z,10.38
2023-05-08T00:47:23.497Z,10.13
2023-05-08T00:49:50.666Z,12.73
2023-05-08T00:52:19.433Z,11.15
2023-05-08T00:54:46.858Z,10.10
2023-05-08T00:57:16.161Z,9.93
2023-05-08T00:59:47.135Z,11.10
2023-05-08T01:02:14.252Z,10.35
2023-05-08T01:04:42.030Z,10.55
2023-05-08T01:07:08.763Z,9.77
2023-05-08T01:09:35.666Z,9.23
2023-05-08T01:12:10.618Z,10.90
2023-05-08T01:14:51.288Z,10.35
2023-05-08T01:17:28.137Z,12.23
2023-05-08T01:20:15.815Z,9.95
2023-05-08T01:22:56.152Z,11.02
2023-05-08T01:25:59.455Z,10.55
2023-05-08T01:28:48.295Z,10.10
2023-05-08T01:31:26.417Z,10.02
2023-05-08T01:34:03.317Z,10.82
2023-05-08T01:36:37.203Z,10.90
2023-05-08T01:39:14.011Z,9.68
2023-05-08T01:41:50.983Z,9.93
2023-05-08T01:44:21.930Z,9.88
2023-05-08T01:46:50.822Z,11.18
2023-05-08T01:49:24.110Z,9.93
2023-05-08T01:51:59.227Z,10.35
2023-05-08T01:54:28.589Z,10.15
2023-05-08T01:56:58.101Z,9.52
2023-05-08T01:59:28.287Z,10.82
2023-05-08T02:01:57.401Z,10.70
2023-05-08T02:04:26.316Z,8.30
2023-05-08T02:06:55.416Z,10.50
2023-05-08T02:09:24.050Z,11.43
2023-05-08T02:11:52.236Z,10.63
2023-05-08T02:14:20.635Z,9.15
2023-05-08T02:16:50.322Z,10.82
2023-05-08T02:19:19.543Z,11.55
2023-05-08T02:21:49.298Z,11.07
2023-05-08T02:24:17.337Z,9.95
2023-05-08T02:26:46.372Z,10.70
2023-05-08T02:29:14.362Z,9.40
2023-05-08T02:31:41.632Z,10.30
2023-05-08T02:34:09.126Z,10.63
2023-05-08T02:36:38.286Z,11.35
2023-05-08T02:39:11.299Z,10.90
2023-05-08T02:41:41.911Z,12.18
2023-05-08T02:44:09.512Z,11.23
2023-05-08T02:46:41.991Z,11.57
2023-05-08T02:49:15.703Z,11.15
2023-05-08T02:51:50.890Z,11.50
2023-05-08T02:54:34.452Z,10.13
2023-05-08T02:57:06.784Z,11.25
2023-05-08T02:59:40.279Z,10.50
2023-05-08T03:02:10.954Z,11.35
2023-05-08T03:04:42.322Z,10.63
2023-05-08T03:09:41.728Z,8.68
2023-05-08T03:12:17.362Z,9.98
2023-05-08T03:14:52.157Z,11.45
2023-05-08T03:17:21.628Z,10.68
2023-05-08T03:19:52.534Z,11.13
2023-05-08T03:22:21.193Z,10.52
2023-05-08T03:24:51.599Z,10.50
2023-05-08T03:27:20.493Z,11.75
2023-05-08T03:29:48.407Z,11.85
2023-05-08T03:32:16.615Z,10.73
2023-05-08T03:34:43.563Z,10.82
2023-05-08T03:37:10.382Z,11.23
2023-05-08T03:39:37.229Z,10.93
2023-05-08T03:42:05.471Z,10.80
2023-05-08T03:44:34.107Z,11.65
2023-05-08T03:47:03.478Z,12.00
2023-05-08T03:49:31.608Z,12.07
2023-05-08T03:51:59.166Z,11.25
2023-05-08T03:54:27.988Z,12.98
2023-05-08T03:56:55.085Z,9.52
2023-05-08T03:59:35.566Z,11.05
2023-05-08T04:02:17.732Z,12.00
2023-05-08T04:04:50.729Z,12.02
2023-05-08T04:07:27.853Z,11.57
2023-05-08T04:10:00.768Z,11.15
2023-05-08T04:12:37.279Z,11.90
2023-05-08T04:15:10.301Z,11.02
2023-05-08T04:17:45.683Z,11.90
2023-05-08T04:20:17.260Z,11.32
2023-05-08T04:25:17.614Z,10.02
2023-05-08T04:27:45.464Z,10.95
2023-05-08T04:30:15.536Z,12.18
2023-05-08T04:32:44.899Z,11.73
2023-05-08T04:35:14.581Z,11.52
2023-05-08T04:37:51.115Z,10.35
2023-05-08T04:40:18.087Z,11.40
2023-05-08T04:42:47.829Z,9.82
2023-05-08T04:45:18.243Z,11.95
2023-05-08T04:47:47.518Z,10.90
2023-05-08T04:50:17.343Z,11.52
2023-05-08T04:52:44.378Z,13.23
2023-05-08T04:55:14.448Z,10.95
2023-05-08T04:57:41.776Z,11.02
2023-05-08T05:00:11.896Z,12.00
2023-05-08T05:02:44.342Z,12.60
2023-05-08T05:05:14.918Z,11.18
2023-05-08T05:07:41.926Z,11.45
2023-05-08T05:10:12.290Z,11.70
2023-05-08T05:12:45.046Z,11.57
2023-05-08T05:15:14.189Z,11.40
2023-05-08T05:17:43.004Z,10.10
2023-05-08T05:20:11.395Z,11.75
2023-05-08T05:22:38.222Z,11.45
2023-05-08T05:25:05.868Z,12.50
2023-05-08T05:27:34.989Z,11.95
2023-05-08T05:30:01.813Z,11.35
2023-05-08T05:32:28.623Z,11.05
2023-05-08T05:35:00.171Z,11.52
2023-05-08T05:37:27.127Z,12.20
2023-05-08T05:39:53.896Z,11.32
2023-05-08T05:42:20.685Z,12.65
2023-05-08T05:44:48.851Z,10.90
2023-05-08T05:47:21.083Z,10.45
2023-05-08T05:49:47.929Z,10.85
2023-05-08T05:52:16.206Z,13.27
2023-05-08T05:54:42.943Z,11.07
2023-05-08T05:57:10.208Z,14.18
2023-05-08T05:59:36.974Z,13.52
2023-05-08T06:02:03.862Z,11.75
2023-05-08T06:04:30.888Z,11.85
2023-05-08T06:06:57.609Z,12.10
2023-05-08T06:09:25.711Z,12.05
2023-05-08T06:11:52.500Z,12.88
2023-05-08T06:14:19.255Z,12.77
2023-05-08T06:16:47.888Z,12.85
2023-05-08T06:19:15.110Z,12.18
2023-05-08T06:21:42.064Z,11.50
2023-05-08T06:24:09.248Z,11.85
2023-05-08T06:26:37.560Z,12.10
2023-05-08T06:29:04.391Z,11.93
2023-05-08T06:31:31.393Z,12.30
2023-05-08T06:33:58.262Z,12.15
2023-05-08T06:36:25.092Z,13.90
2023-05-08T06:38:53.264Z,15.15
2023-05-08T06:41:19.940Z,17.08
2023-05-08T06:43:48.194Z,18.17
2023-05-08T06:46:14.969Z,15.27
2023-05-08T06:48:41.748Z,18.05
2023-05-08T06:51:08.646Z,19.25
2023-05-08T06:53:35.941Z,15.07
2023-05-08T06:56:02.775Z,18.95
2023-05-08T06:58:31.569Z,18.40
2023-05-08T07:01:01.855Z,17.98
2023-05-08T07:03:28.673Z,19.90
2023-05-08T07:05:55.539Z,20.63
2023-05-08T07:08:22.347Z,22.80
2023-05-08T07:10:49.196Z,17.33
2023-05-08T07:13:20.110Z,20.85
2023-05-08T07:15:47.963Z,19.35
2023-05-08T07:18:16.934Z,21.20
2023-05-08T07:20:43.843Z,22.63
2023-05-08T07:23:10.643Z,23.38
2023-05-08T07:25:37.385Z,21.48
2023-05-08T07:28:04.619Z,21.55
2023-05-08T07:30:31.689Z,21.10
2023-05-08T07:32:58.617Z,17.75
2023-05-08T07:35:26.986Z,22.52
2023-05-08T07:37:54.134Z,27.55
2023-05-08T07:40:21.470Z,22.63
2023-05-08T07:42:48.398Z,23.67
2023-05-08T07:45:15.739Z,24.52
2023-05-08T07:47:50.320Z,22.60
2023-05-08T07:50:17.622Z,19.98
2023-05-08T07:52:56.408Z,21.75
2023-05-08T07:55:28.380Z,26.40
2023-05-08T07:57:58.506Z,26.40
2023-05-08T08:00:30.051Z,25.52
2023-05-08T08:02:58.607Z,27.02
2023-05-08T08:05:25.588Z,26.45
2023-05-08T08:08:00.443Z,21.83
2023-05-08T08:10:29.649Z,24.38
2023-05-08T08:12:58.993Z,20.92
2023-05-08T08:15:31.069Z,24.77
2023-05-08T08:18:06.099Z,24.52
2023-05-08T08:20:33.130Z,23.50
2023-05-08T08:23:22.193Z,25.13
2023-05-08T08:26:03.048Z,25.65
2023-05-08T08:28:33.084Z,26.08
2023-05-08T08:31:00.233Z,22.35
2023-05-08T08:33:28.652Z,21.55
2023-05-08T08:35:56.330Z,24.38
2023-05-08T08:38:25.196Z,25.50
2023-05-08T08:40:54.351Z,21.95
2023-05-08T08:43:22.519Z,24.92
2023-05-08T08:45:50.092Z,22.33
2023-05-08T08:48:18.346Z,24.50
2023-05-08T08:50:49.585Z,23.77
2023-05-08T08:53:26.010Z,24.80
2023-05-08T08:55:57.312Z,21.75
2023-05-08T09:00:56.185Z,19.80
2023-05-08T09:03:23.607Z,21.45
2023-05-08T09:05:51.361Z,21.58
2023-05-08T09:08:20.372Z,22.92
2023-05-08T09:10:47.253Z,26.38
2023-05-08T09:13:17.348Z,25.17
2023-05-08T09:15:47.111Z,16.77
2023-05-08T09:18:14.006Z,23.88
2023-05-08T09:20:42.544Z,21.25
2023-05-08T09:23:11.989Z,24.38
2023-05-08T09:25:43.029Z,22.02
2023-05-08T09:28:21.180Z,23.05
2023-05-08T09:30:53.126Z,23.73
2023-05-08T09:33:35.221Z,23.67
2023-05-08T09:36:10.742Z,22.90
2023-05-08T09:38:56.457Z,20.55
2023-05-08T09:41:40.180Z,22.02
2023-05-08T09:44:09.978Z,22.20
2023-05-08T09:46:40.298Z,21.45
2023-05-08T09:49:22.808Z,21.02
2023-05-08T09:52:06.693Z,23.80
2023-05-08T09:54:35.585Z,24.00
2023-05-08T09:57:12.136Z,20.90
2023-05-08T09:59:40.377Z,23.17
2023-05-08T10:02:23.018Z,23.45
2023-05-08T10:05:33.735Z,23.50
2023-05-08T10:08:18.993Z,21.48
2023-05-08T10:13:29.733Z,19.33
2023-05-08T10:15:58.233Z,24.80
2023-05-08T10:18:30.046Z,20.20
2023-05-08T10:21:02.581Z,16.02
2023-05-08T10:23:35.760Z,18.98
2023-05-08T10:28:59.224Z,18.60
2023-05-08T10:31:29.487Z,20.25
2023-05-08T10:33:59.166Z,20.25
2023-05-08T10:36:35.332Z,22.88
2023-05-08T10:39:06.916Z,20.75
2023-05-08T10:41:35.748Z,19.67
2023-05-08T10:44:03.632Z,19.23
2023-05-08T10:46:46.003Z,20.50
2023-05-08T10:49:20.209Z,20.65
2023-05-08T10:51:55.965Z,20.05
2023-05-08T10:54:42.285Z,22.02
2023-05-08T10:57:10.900Z,21.20
2023-05-08T10:59:38.451Z,21.38
2023-05-08T11:02:09.208Z,21.73
2023-05-08T11:04:36.254Z,22.92
2023-05-08T11:07:04.439Z,17.85
2023-05-08T11:09:45.990Z,23.83
2023-05-08T11:12:21.172Z,23.38
2023-05-08T11:14:57.572Z,23.92
2023-05-08T11:17:27.074Z,24.05
2023-05-08T11:19:56.600Z,19.83
2023-05-08T11:22:26.355Z,24.92
2023-05-08T11:25:05.489Z,23.85
2023-05-08T11:28:03.408Z,21.35
2023-05-08T11:30:38.005Z,21.27
2023-05-08T11:33:31.064Z,22.88
2023-05-08T11:35:59.445Z,25.25
2023-05-08T11:38:35.749Z,25.08
2023-05-08T11:41:07.866Z,25.15
2023-05-08T11:44:17.321Z,23.80
2023-05-08T11:46:53.526Z,27.77
2023-05-08T11:49:26.847Z,25.67
2023-05-08T11:51:58.638Z,26.90
2023-05-08T11:54:29.732Z,44.53
2023-05-08T11:56:57.585Z,30.17
2023-05-08T11:59:25.700Z,29.83
2023-05-08T12:04:24.232Z,38.33
2023-05-08T12:06:57.812Z,33.80
2023-05-08T12:09:24.859Z,25.90
2023-05-08T12:11:57.324Z,27.58
2023-05-08T12:14:24.314Z,26.02
2023-05-08T12:16:51.946Z,49.28
2023-05-08T12:19:18.931Z,35.40
2023-05-08T12:21:50.453Z,30.15
2023-05-08T12:24:23.493Z,26.02
2023-05-08T12:26:54.665Z,28.13
2023-05-08T12:29:21.419Z,27.95
2023-05-08T12:31:48.858Z,25.55
2023-05-08T12:34:16.225Z,27.55
2023-05-08T12:36:42.975Z,27.73
2023-05-08T12:39:12.622Z,26.95
2023-05-08T12:41:47.912Z,25.67
2023-05-08T12:44:19.077Z,29.30
2023-05-08T12:49:32.439Z,25.40
2023-05-08T12:52:07.007Z,25.88
2023-05-08T12:54:37.203Z,25.90
2023-05-08T12:57:11.699Z,26.42
2023-05-08T12:59:38.600Z,28.10
2023-05-08T13:02:18.387Z,25.10
2023-05-08T13:04:45.523Z,26.98
2023-05-08T13:07:12.511Z,26.80
2023-05-08T13:09:55.449Z,29.85
2023-05-08T13:12:22.119Z,28.20
2023-05-08T13:14:48.838Z,28.30
2023-05-08T13:17:17.538Z,27.80
2023-05-08T13:19:44.271Z,28.67
2023-05-08T13:22:12.368Z,28.23
2023-05-08T13:24:40.693Z,30.40
2023-05-08T13:27:07.627Z,27.60
2023-05-08T13:29:34.373Z,28.88
2023-05-08T13:32:01.213Z,28.35
2023-05-08T13:34:27.988Z,26.55
2023-05-08T13:36:54.730Z,23.70
2023-05-08T13:39:21.430Z,28.80
2023-05-08T13:41:49.504Z,28.08
2023-05-08T13:44:19.367Z,30.30
2023-05-08T13:46:46.126Z,25.98
2023-05-08T13:49:12.863Z,27.13
2023-05-08T13:51:39.719Z,22.83
2023-05-08T13:54:06.546Z,28.25
2023-05-08T13:56:33.498Z,24.33
2023-05-08T13:59:01.587Z,24.10
2023-05-08T14:01:28.492Z,23.92
2023-05-08T14:03:55.790Z,21.15
2023-05-08T14:06:23.272Z,22.40
2023-05-08T14:08:52.730Z,21.58
2023-05-08T14:11:22.426Z,22.88
2023-05-08T14:13:49.381Z,23.88
2023-05-08T14:16:17.776Z,21.80
2023-05-08T14:18:44.558Z,20.63
2023-05-08T14:21:11.457Z,22.45
2023-05-08T14:23:39.035Z,24.48
2023-05-08T14:26:09.119Z,19.95
2023-05-08T14:28:35.859Z,22.50
2023-05-08T14:31:02.839Z,19.27
2023-05-08T14:33:31.136Z,20.38
2023-05-08T14:35:57.968Z,21.90
2023-05-08T14:38:25.025Z,23.25
2023-05-08T14:40:54.540Z,24.08
2023-05-08T14:43:24.339Z,20.55
2023-05-08T14:45:51.475Z,21.60
2023-05-08T14:48:18.710Z,23.83
2023-05-08T14:50:47.732Z,20.90
2023-05-08T14:53:15.182Z,21.88
2023-05-08T14:55:42.672Z,22.27
2023-05-08T14:58:10.229Z,22.95
2023-05-08T15:00:37.466Z,18.90
2023-05-08T15:03:05.552Z,22.35
2023-05-08T15:05:33.114Z,20.13
2023-05-08T15:08:10.721Z,21.10
2023-05-08T15:10:44.627Z,20.92
2023-05-08T15:13:14.455Z,21.70
2023-05-08T15:15:41.228Z,22.92
2023-05-08T15:18:08.308Z,24.83
2023-05-08T15:20:35.202Z,23.10
2023-05-08T15:23:03.267Z,24.90
2023-05-08T15:25:30.044Z,28.23
2023-05-08T15:27:58.223Z,22.45
2023-05-08T15:30:25.516Z,21.48
2023-05-08T15:32:53.492Z,23.45
2023-05-08T15:35:20.313Z,22.85
2023-05-08T15:37:47.325Z,24.42
2023-05-08T15:40:15.832Z,24.58
2023-05-08T15:42:42.530Z,24.60
2023-05-08T15:45:10.251Z,21.17
2023-05-08T15:47:37.004Z,22.40
2023-05-08T15:50:04.133Z,21.73
2023-05-08T15:52:30.898Z,22.33
2023-05-08T15:54:58.028Z,22.40
2023-05-08T15:57:27.167Z,23.52
2023-05-08T15:59:54.010Z,23.83
2023-05-08T16:02:20.803Z,22.50
2023-05-08T16:04:47.601Z,21.00
2023-05-08T16:07:14.271Z,20.38
2023-05-08T16:09:42.403Z,21.15
2023-05-08T16:12:10.280Z,23.45
2023-05-08T16:14:38.434Z,23.23
2023-05-08T16:17:07.529Z,22.98
2023-05-08T16:19:37.595Z,22.27
2023-05-08T16:22:04.313Z,21.58
2023-05-08T16:24:31.372Z,22.42
2023-05-08T16:26:58.145Z,22.70
2023-05-08T16:29:24.970Z,22.27
2023-05-08T16:31:53.300Z,21.40
2023-05-08T16:34:20.675Z,22.80
2023-05-08T16:36:50.049Z,23.45
2023-05-08T16:39:17.271Z,23.13
2023-05-08T16:41:44.084Z,21.98
2023-05-08T16:44:13.169Z,22.65
2023-05-08T16:46:47.749Z,22.33
2023-05-08T16:49:16.368Z,20.90
2023-05-08T16:51:49.745Z,21.88
2023-05-08T16:54:16.930Z,19.98
2023-05-08T16:56:44.475Z,22.10
2023-05-08T16:59:33.622Z,23.67
2023-05-08T17:02:07.762Z,21.40
2023-05-08T17:04:38.396Z,20.63
2023-05-08T17:07:09.264Z,20.42
2023-05-08T17:09:35.994Z,19.75
2023-05-08T17:12:02.742Z,15.20
2023-05-08T17:14:29.458Z,22.27
2023-05-08T17:16:56.178Z,19.08
2023-05-08T17:19:22.876Z,17.75
2023-05-08T17:21:51.025Z,19.75
2023-05-08T17:24:19.586Z,18.15
2023-05-08T17:26:46.395Z,16.50
2023-05-08T17:29:13.111Z,15.90
2023-05-08T17:31:41.071Z,14.05
2023-05-08T17:34:07.830Z,13.98
2023-05-08T17:36:34.850Z,15.52
2023-05-08T17:39:02.994Z,15.60
2023-05-08T17:41:29.836Z,15.40
2023-05-08T17:43:56.998Z,17.98
2023-05-08T17:46:24.604Z,14.50
2023-05-08T17:48:51.381Z,15.80
2023-05-08T17:51:18.162Z,16.92
2023-05-08T17:53:46.093Z,17.92
2023-05-08T17:56:16.360Z,19.42
2023-05-08T17:58:43.571Z,20.02
2023-05-08T18:01:10.311Z,20.02
2023-05-08T18:03:37.355Z,20.67
2023-05-08T18:06:06.246Z,18.58
2023-05-08T18:08:33.787Z,16.50
2023-05-08T18:11:00.711Z,19.98
2023-05-08T18:13:28.883Z,17.88
2023-05-08T18:15:55.627Z,18.80
2023-05-08T18:18:22.636Z,19.15
2023-05-08T18:20:49.388Z,20.80
2023-05-08T18:23:16.162Z,19.00
2023-05-08T18:25:42.861Z,20.60
2023-05-08T18:28:09.579Z,22.88
2023-05-08T18:30:40.234Z,20.92
2023-05-08T18:33:07.055Z,20.35
2023-05-08T18:35:33.846Z,19.80
2023-05-08T18:38:00.536Z,19.50
2023-05-08T18:40:27.443Z,20.27
2023-05-08T18:42:55.642Z,23.55
2023-05-08T18:45:22.628Z,21.33
2023-05-08T18:47:52.411Z,20.25
2023-05-08T18:50:19.449Z,21.75
2023-05-08T18:52:47.092Z,19.65
2023-05-08T18:55:13.868Z,18.92
2023-05-08T18:57:40.662Z,16.88
2023-05-08T19:00:08.697Z,16.65
2023-05-08T19:02:35.488Z,18.70
2023-05-08T19:05:04.441Z,19.80
2023-05-08T19:07:31.256Z,21.55
2023-05-08T19:09:58.019Z,19.60
2023-05-08T19:12:24.769Z,21.83
2023-05-08T19:14:53.897Z,22.67
2023-05-08T19:17:21.235Z,22.55
2023-05-08T19:19:49.557Z,20.27
2023-05-08T19:22:17.756Z,18.50
2023-05-08T19:24:44.597Z,22.40
2023-05-08T19:27:11.514Z,19.80
2023-05-08T19:29:39.452Z,20.40
2023-05-08T19:32:06.398Z,21.63
2023-05-08T19:34:35.197Z,18.92
2023-05-08T19:37:02.400Z,18.85
2023-05-08T19:39:30.816Z,19.67
2023-05-08T19:42:00.357Z,22.75
2023-05-08T19:44:28.101Z,22.67
2023-05-08T19:46:54.916Z,19.90
2023-05-08T19:49:21.650Z,21.92
2023-05-08T19:51:49.560Z,21.48
2023-05-08T19:54:16.574Z,20.70
2023-05-08T19:56:48.836Z,22.15
2023-05-08T19:59:26.556Z,19.20
2023-05-08T20:01:54.231Z,21.30
2023-05-08T20:04:48.848Z,20.20
2023-05-08T20:07:24.631Z,18.38
2023-05-08T20:09:51.901Z,21.40
2023-05-08T20:12:21.196Z,20.02
2023-05-08T20:14:49.091Z,18.75
2023-05-08T20:17:16.382Z,21.13
2023-05-08T20:19:43.760Z,20.48
2023-05-08T20:22:11.094Z,16.77
2023-05-08T20:24:37.859Z,17.65
2023-05-08T20:27:07.738Z,18.88
2023-05-08T20:29:35.928Z,16.63
2023-05-08T20:32:02.827Z,16.10
2023-05-08T20:34:30.162Z,18.52
2023-05-08T20:36:59.178Z,19.92
2023-05-08T20:39:25.933Z,18.55
2023-05-08T20:41:52.831Z,19.25
2023-05-08T20:44:19.673Z,19.33
2023-05-08T20:46:47.897Z,18.70
2023-05-08T20:49:17.083Z,19.65
2023-05-08T20:51:43.879Z,18.42
2023-05-08T20:54:10.658Z,16.52
2023-05-08T20:56:37.678Z,19.73
2023-05-08T20:59:04.450Z,20.05
2023-05-08T21:01:31.313Z,17.98
2023-05-08T21:03:59.666Z,21.58
2023-05-08T21:06:26.754Z,20.92
2023-05-08T21:08:56.436Z,22.77
2023-05-08T21:11:23.283Z,21.48
2023-05-08T21:13:50.248Z,24.90
2023-05-08T21:16:17.564Z,23.60
2023-05-08T21:18:45.462Z,27.75
2023-05-08T21:21:18.157Z,26.38
2023-05-08T21:23:45.005Z,21.20
2023-05-08T21:26:11.809Z,31.02
2023-05-08T21:28:39.903Z,29.10
2023-05-08T21:31:06.911Z,29.20
2023-05-08T21:33:35.664Z,25.40
2023-05-08T21:36:03.927Z,31.38
2023-05-08T21:38:35.403Z,31.95
2023-05-08T21:41:06.444Z,29.52
2023-05-08T21:43:33.734Z,28.00
2023-05-08T21:46:01.772Z,27.55
2023-05-08T21:48:30.660Z,28.67
2023-05-08T21:50:58.684Z,27.40
2023-05-08T21:53:27.472Z,28.85
2023-05-08T21:56:31.535Z,30.10
2023-05-08T21:59:00.915Z,28.23
2023-05-08T22:01:29.025Z,33.10
2023-05-08T22:03:56.042Z,26.98
2023-05-08T22:06:22.884Z,26.60
2023-05-08T22:08:49.897Z,24.90
2023-05-08T22:11:16.976Z,23.80
2023-05-08T22:13:44.852Z,25.40
2023-05-08T22:16:13.136Z,30.08
2023-05-08T22:18:40.822Z,25.40
2023-05-08T22:21:07.734Z,26.70
2023-05-08T22:23:35.011Z,32.83
2023-05-08T22:26:03.491Z,28.60
2023-05-08T22:28:33.386Z,29.17
2023-05-08T22:31:02.627Z,29.80
2023-05-08T22:33:34.171Z,28.70
2023-05-08T22:36:02.406Z,28.13
2023-05-08T22:38:29.169Z,25.38
2023-05-08T22:40:57.576Z,25.15
2023-05-08T22:43:24.853Z,25.42
2023-05-08T22:45:51.923Z,26.08
2023-05-08T22:48:18.829Z,29.80
2023-05-08T22:50:48.918Z,22.90
2023-05-08T22:53:16.937Z,25.08
2023-05-08T22:55:43.714Z,25.80
2023-05-08T22:58:10.609Z,24.63
2023-05-08T23:00:37.751Z,27.42
2023-05-08T23:03:04.897Z,26.85
2023-05-08T23:05:32.522Z,23.67
2023-05-08T23:08:02.216Z,24.45
2023-05-08T23:10:29.488Z,25.17
2023-05-08T23:12:56.392Z,27.05
2023-05-08T23:15:23.464Z,28.05
2023-05-08T23:17:50.661Z,21.85
2023-05-08T23:20:17.651Z,25.23
2023-05-08T23:22:44.684Z,23.40
2023-05-08T23:25:13.174Z,30.27
2023-05-08T23:27:40.193Z,25.95
2023-05-08T23:30:07.911Z,26.90
2023-05-08T23:32:34.925Z,26.98
2023-05-08T23:35:01.731Z,26.08
2023-05-08T23:37:28.512Z,26.80
2023-05-08T23:39:55.556Z,23.83
2023-05-08T23:42:23.643Z,23.73
2023-05-08T23:44:50.617Z,26.85
2023-05-08T23:47:19.329Z,24.30
2023-05-08T23:49:46.641Z,22.58
2023-05-08T23:52:13.492Z,22.30
2023-05-08T23:54:40.408Z,25.10
2023-05-08T23:57:07.265Z,25.73
2023-05-08T23:59:36.720Z,24.77
